createdAt,value
2022-11-13T00:01:56.271Z,7.34
2022-11-13T00:07:36.581Z,7.35
2022-11-13T00:13:16.931Z,7.34
2022-11-13T00:18:57.633Z,7.28
2022-11-13T00:24:38.103Z,7.38
2022-11-13T00:30:19.665Z,7.34
2022-11-13T00:36:20.331Z,7.37
2022-11-13T00:42:01.101Z,7.33
2022-11-13T00:47:41.710Z,7.38
2022-11-13T00:53:22.152Z,7.38
2022-11-13T00:59:02.861Z,7.35
2022-11-13T01:04:43.652Z,7.39
2022-11-13T01:10:25.391Z,7.39
2022-11-13T01:16:10.622Z,7.36
2022-11-13T01:21:50.752Z,7.28
2022-11-13T01:27:30.921Z,7.29
2022-11-13T01:33:11.673Z,7.25
2022-11-13T01:38:52.773Z,7.23
2022-11-13T01:44:55.302Z,7.16
2022-11-13T01:50:35.976Z,7.22
2022-11-13T01:56:17.309Z,7.29
2022-11-13T02:01:58.247Z,7.22
2022-11-13T02:07:38.962Z,7.10
2022-11-13T02:13:20.442Z,7.22
2022-11-13T02:19:02.861Z,7.09
2022-11-13T02:24:47.892Z,6.96
2022-11-13T02:30:34.404Z,7.13
2022-11-13T02:36:15.514Z,7.07
2022-11-13T02:41:55.951Z,7.10
2022-11-13T02:47:36.672Z,7.12
2022-11-13T02:53:19.251Z,6.93
2022-11-13T02:58:59.741Z,6.98
2022-11-13T03:05:10.393Z,6.92
2022-11-13T03:10:40.792Z,6.74
2022-11-13T03:16:20.902Z,6.58
2022-11-13T03:22:01.522Z,6.66
2022-11-13T03:27:41.720Z,6.76
2022-11-13T03:33:21.893Z,6.70
2022-11-13T03:39:02.234Z,6.78
2022-11-13T03:44:42.606Z,6.71
2022-11-13T03:50:23.791Z,6.56
2022-11-13T03:56:03.512Z,6.63
2022-11-13T04:01:43.664Z,6.55
2022-11-13T04:07:24.082Z,6.47
2022-11-13T04:13:04.742Z,6.60
2022-11-13T04:18:45.333Z,6.51
2022-11-13T04:24:25.820Z,6.20
2022-11-13T04:30:06.566Z,6.44
2022-11-13T04:35:46.957Z,6.34
2022-11-13T04:41:47.292Z,6.25
2022-11-13T04:47:30.105Z,6.30
2022-11-13T04:53:13.063Z,6.39
2022-11-13T04:58:53.620Z,6.50
2022-11-13T05:04:34.208Z,6.48
2022-11-13T05:10:14.801Z,6.41
2022-11-13T05:16:07.030Z,6.45
2022-11-13T05:21:47.140Z,6.37
2022-11-13T05:27:27.510Z,6.41
2022-11-13T05:33:07.983Z,6.42
2022-11-13T05:38:50.550Z,6.42
2022-11-13T05:44:31.040Z,6.37
2022-11-13T05:50:11.208Z,6.41
2022-11-13T05:55:51.550Z,6.42
2022-11-13T06:01:40.227Z,6.46
2022-11-13T06:07:20.923Z,6.48
2022-11-13T06:13:01.789Z,6.51
2022-11-13T06:18:43.849Z,6.51
2022-11-13T06:24:24.129Z,6.48
2022-11-13T06:30:04.531Z,6.55
2022-11-13T06:35:45.082Z,6.42
2022-11-13T06:41:27.449Z,6.56
2022-11-13T06:47:07.450Z,6.59
2022-11-13T06:52:47.650Z,6.57
2022-11-13T06:58:28.195Z,6.51
2022-11-13T07:04:13.210Z,6.59
2022-11-13T07:09:53.552Z,6.50
2022-11-13T07:15:40.071Z,6.55
2022-11-13T07:21:21.349Z,6.52
2022-11-13T07:27:02.284Z,6.57
2022-11-13T07:32:42.991Z,6.53
2022-11-13T07:38:23.710Z,6.54
2022-11-13T07:44:08.857Z,6.53
2022-11-13T07:49:49.460Z,6.57
2022-11-13T07:55:30.790Z,6.59
2022-11-13T08:01:11.741Z,6.53
2022-11-13T08:06:51.983Z,6.39
2022-11-13T08:12:32.333Z,6.07
2022-11-13T08:18:12.510Z,6.01
2022-11-13T08:23:52.492Z,6.08
2022-11-13T08:29:32.861Z,6.14
2022-11-13T08:35:18.789Z,6.16
2022-11-13T08:41:08.604Z,6.12
2022-11-13T08:46:49.433Z,6.12
2022-11-13T08:52:29.793Z,6.15
2022-11-13T08:58:10.472Z,6.22
2022-11-13T09:03:51.023Z,6.15
2022-11-13T09:09:31.163Z,6.06
2022-11-13T09:15:12.521Z,6.07
2022-11-13T09:20:53.051Z,5.99
2022-11-13T09:26:34.634Z,6.06
2022-11-13T09:32:16.524Z,6.11
2022-11-13T09:37:57.113Z,6.02
2022-11-13T09:44:06.424Z,6.22
2022-11-13T09:49:55.146Z,6.24
2022-11-13T09:55:42.902Z,6.15
2022-11-13T10:01:32.223Z,6.22
2022-11-13T10:07:29.474Z,6.07
2022-11-13T10:13:20.464Z,6.08
2022-11-13T10:19:16.972Z,6.07
2022-11-13T10:25:29.351Z,6.02
2022-11-13T10:31:17.161Z,5.97
2022-11-13T10:37:36.102Z,6.04
2022-11-13T10:43:19.730Z,6.08
2022-11-13T10:49:12.788Z,6.08
2022-11-13T10:55:13.913Z,5.88
2022-11-13T11:00:54.149Z,6.03
2022-11-13T11:12:40.671Z,5.40
2022-11-13T11:18:20.261Z,5.44
2022-11-13T11:24:23.494Z,5.43
2022-11-13T11:30:26.825Z,5.43
2022-11-13T11:36:31.514Z,5.36
2022-11-13T11:42:30.102Z,5.35
2022-11-13T11:48:16.966Z,5.38
2022-11-13T11:54:12.654Z,5.10
2022-11-13T12:00:15.581Z,4.76
2022-11-13T12:06:24.260Z,4.60
2022-11-13T12:12:45.169Z,4.56
2022-11-13T12:18:25.888Z,4.57
2022-11-13T12:24:11.959Z,4.56
2022-11-13T12:30:25.342Z,4.50
2022-11-13T12:36:06.632Z,4.38
2022-11-13T12:42:11.964Z,4.35
2022-11-13T12:47:52.837Z,4.23
2022-11-13T12:53:47.121Z,4.36
2022-11-13T12:59:32.485Z,4.39
2022-11-13T13:05:34.642Z,4.41
2022-11-13T13:12:00.471Z,4.42
2022-11-13T13:17:43.050Z,4.14
2022-11-13T13:23:53.900Z,4.38
2022-11-13T13:29:34.593Z,4.31
2022-11-13T13:35:23.001Z,4.27
2022-11-13T13:41:03.029Z,4.29
2022-11-13T13:46:44.730Z,4.25
2022-11-13T13:52:33.764Z,4.31
2022-11-13T13:58:19.401Z,4.36
2022-11-13T14:04:28.470Z,4.16
2022-11-13T14:10:21.382Z,4.22
2022-11-13T14:16:04.663Z,4.21
2022-11-13T14:21:46.861Z,4.38
2022-11-13T14:27:29.563Z,4.32
2022-11-13T14:33:15.653Z,4.33
2022-11-13T14:38:56.572Z,4.20
2022-11-13T14:44:36.763Z,4.18
2022-11-13T14:50:24.561Z,4.15
2022-11-13T14:56:11.372Z,4.15
2022-11-13T15:01:56.291Z,4.07
2022-11-13T15:07:42.628Z,4.07
2022-11-13T15:13:22.751Z,3.85
2022-11-13T15:19:26.402Z,3.95
2022-11-13T15:25:14.372Z,3.74
2022-11-13T15:30:54.797Z,3.67
2022-11-13T15:36:35.579Z,3.49
2022-11-13T15:42:19.063Z,3.55
2022-11-13T15:48:02.381Z,3.36
2022-11-13T15:53:43.331Z,3.51
2022-11-13T15:59:23.544Z,3.48
2022-11-13T16:05:03.731Z,3.43
2022-11-13T16:10:44.252Z,3.51
2022-11-13T16:16:27.825Z,3.56
2022-11-13T16:22:17.856Z,3.52
2022-11-13T16:27:58.251Z,3.55
2022-11-13T16:33:38.862Z,3.62
2022-11-13T16:39:19.423Z,3.49
2022-11-13T16:44:59.771Z,3.58
2022-11-13T16:50:40.842Z,3.70
2022-11-13T16:56:31.314Z,3.72
2022-11-13T17:02:17.669Z,3.71
2022-11-13T17:07:59.913Z,3.35
2022-11-13T17:13:41.038Z,3.29
2022-11-13T17:19:21.138Z,3.11
2022-11-13T17:25:02.320Z,2.99
2022-11-13T17:30:43.112Z,2.96
2022-11-13T17:36:23.601Z,2.88
2022-11-13T17:42:03.752Z,2.88
2022-11-13T17:47:44.561Z,2.82
2022-11-13T17:53:39.431Z,2.90
2022-11-13T17:59:25.353Z,2.89
2022-11-13T18:05:10.349Z,2.96
2022-11-13T18:10:54.111Z,2.94
2022-11-13T18:16:38.555Z,2.69
2022-11-13T18:22:19.703Z,2.64
2022-11-13T18:28:03.339Z,2.59
2022-11-13T18:33:44.622Z,2.50
2022-11-13T18:39:24.967Z,2.42
2022-11-13T18:45:06.378Z,2.42
2022-11-13T18:50:59.413Z,2.44
2022-11-13T18:56:41.132Z,2.41
2022-11-13T19:02:21.345Z,2.34
2022-11-13T19:08:01.882Z,2.27
2022-11-13T19:13:43.805Z,2.32
2022-11-13T19:19:24.862Z,2.30
2022-11-13T19:25:05.203Z,2.27
2022-11-13T19:30:46.963Z,2.22
2022-11-13T19:36:29.517Z,2.23
2022-11-13T19:42:09.940Z,1.93
2022-11-13T19:47:50.341Z,2.06
2022-11-13T19:53:32.030Z,1.86
2022-11-13T19:59:12.165Z,1.96
2022-11-13T20:04:52.482Z,1.86
2022-11-13T20:10:33.163Z,1.94
2022-11-13T20:16:14.990Z,1.97
2022-11-13T20:21:55.204Z,1.95
2022-11-13T20:27:37.350Z,1.93
2022-11-13T20:33:22.393Z,1.91
2022-11-13T20:39:06.876Z,1.86
2022-11-13T20:44:49.285Z,1.79
2022-11-13T20:50:29.391Z,1.80
2022-11-13T20:56:10.726Z,1.70
2022-11-13T21:01:51.410Z,1.66
2022-11-13T21:07:31.784Z,1.62
2022-11-13T21:13:11.943Z,1.53
2022-11-13T21:18:52.603Z,1.42
2022-11-13T21:24:33.002Z,1.03
2022-11-13T21:30:14.784Z,0.90
2022-11-13T21:35:55.424Z,0.89
2022-11-13T21:41:35.942Z,0.86
2022-11-13T21:47:16.052Z,0.91
2022-11-13T21:52:56.304Z,0.82
2022-11-13T21:58:39.502Z,0.69
2022-11-13T22:04:19.942Z,0.72
2022-11-13T22:17:19.326Z,0.73
2022-11-13T22:22:59.324Z,0.54
2022-11-13T22:28:41.884Z,0.50
2022-11-13T22:34:21.882Z,0.41
2022-11-13T22:40:02.126Z,0.16
2022-11-13T22:45:42.862Z,-0.21
2022-11-13T22:51:31.185Z,-0.15
2022-11-13T22:57:11.766Z,-0.31
2022-11-13T23:02:52.275Z,-0.28
2022-11-13T23:08:33.147Z,-0.26
2022-11-13T23:14:16.287Z,-0.24
2022-11-13T23:19:56.347Z,-0.21
2022-11-13T23:25:37.191Z,-0.19
2022-11-13T23:31:18.216Z,-0.25
2022-11-13T23:36:58.299Z,-0.16
2022-11-13T23:42:54.309Z,-0.24
2022-11-13T23:48:35.859Z,-0.26
2022-11-13T23:54:16.263Z,-0.18
2022-11-13T23:59:57.165Z,-0.15
